sensor_id;sensor_type;location;lat;lon;timestamp;pressure;altitude;pressure_sealevel;temperature;humidity
5350;BME280;2697;42.144;24.794;2023-02-10T00:00:21;151159.81;;;-5.51;100.00
5350;BME280;2697;42.144;24.794;2023-02-10T00:02:46;151142.97;;;-5.58;100.00
5350;BME280;2697;42.144;24.794;2023-02-10T00:05:11;151168.94;;;-5.48;100.00
5350;BME280;2697;42.144;24.794;2023-02-10T00:07:37;151246.81;;;-5.17;100.00
5350;BME280;2697;42.144;24.794;2023-02-10T00:10:03;151241.66;;;-5.19;100.00
5350;BME280;2697;42.144;24.794;2023-02-10T00:12:28;151249.41;;;-5.16;100.00
5350;BME280;2697;42.144;24.794;2023-02-10T00:14:54;151194.88;;;-5.37;100.00
5350;BME280;2697;42.144;24.794;2023-02-10T00:17:19;151116.97;;;-5.68;100.00
5350;BME280;2697;42.144;24.794;2023-02-10T00:19:44;151080.63;;;-5.82;100.00
5350;BME280;2697;42.144;24.794;2023-02-10T00:22:10;151039.13;;;-5.98;100.00
5350;BME280;2697;42.144;24.794;2023-02-10T00:24:35;151106.59;;;-5.72;100.00
5350;BME280;2697;42.144;24.794;2023-02-10T00:27:01;151093.59;;;-5.77;100.00
5350;BME280;2697;42.144;24.794;2023-02-10T00:29:26;151028.78;;;-6.03;100.00
5350;BME280;2697;42.144;24.794;2023-02-10T00:31:52;150997.59;;;-6.15;100.00
5350;BME280;2697;42.144;24.794;2023-02-10T00:34:18;151093.59;;;-5.77;100.00
5350;BME280;2697;42.144;24.794;2023-02-10T00:36:43;151132.56;;;-5.62;100.00
5350;BME280;2697;42.144;24.794;2023-02-10T00:39:13;151104.00;;;-5.73;100.00
5350;BME280;2697;42.144;24.794;2023-02-10T00:41:39;151135.16;;;-5.61;100.00
5350;BME280;2697;42.144;24.794;2023-02-10T00:44:05;151135.16;;;-5.61;100.00
5350;BME280;2697;42.144;24.794;2023-02-10T00:46:31;151113.06;;;-5.69;100.00
5350;BME280;2697;42.144;24.794;2023-02-10T00:48:56;151057.31;;;-5.91;100.00
5350;BME280;2697;42.144;24.794;2023-02-10T00:51:22;151015.78;;;-6.08;100.00
5350;BME280;2697;42.144;24.794;2023-02-10T00:53:47;151072.88;;;-5.85;100.00
5350;BME280;2697;42.144;24.794;2023-02-10T00:56:18;151062.44;;;-5.89;100.00
5350;BME280;2697;42.144;24.794;2023-02-10T00:58:44;151000.25;;;-6.14;100.00
5350;BME280;2697;42.144;24.794;2023-02-10T01:01:10;151023.59;;;-6.05;100.00
5350;BME280;2697;42.144;24.794;2023-02-10T01:03:36;151031.38;;;-6.01;100.00
5350;BME280;2697;42.144;24.794;2023-02-10T01:06:02;151041.72;;;-5.97;100.00
5350;BME280;2697;42.144;24.794;2023-02-10T01:08:28;151059.91;;;-5.90;100.00
5350;BME280;2697;42.144;24.794;2023-02-10T01:11:02;151046.97;;;-5.95;100.00
5350;BME280;2697;42.144;24.794;2023-02-10T01:13:27;151046.97;;;-5.95;100.00
5350;BME280;2697;42.144;24.794;2023-02-10T01:15:53;151000.25;;;-6.14;100.00
5350;BME280;2697;42.144;24.794;2023-02-10T01:18:18;150995.00;;;-6.16;100.00
5350;BME280;2697;42.144;24.794;2023-02-10T01:20:44;151037.84;;;-5.99;100.00
5350;BME280;2697;42.144;24.794;2023-02-10T01:23:09;151008.00;;;-6.11;100.00
5350;BME280;2697;42.144;24.794;2023-02-10T01:25:35;150993.72;;;-6.16;100.00
5350;BME280;2697;42.144;24.794;2023-02-10T01:28:02;150940.53;;;-6.37;100.00
5350;BME280;2697;42.144;24.794;2023-02-10T01:30:27;150915.91;;;-6.47;100.00
5350;BME280;2697;42.144;24.794;2023-02-10T01:32:58;150937.94;;;-6.38;100.00
5350;BME280;2697;42.144;24.794;2023-02-10T01:35:23;150971.66;;;-6.25;100.00
5350;BME280;2697;42.144;24.794;2023-02-10T01:37:49;150873.06;;;-6.64;100.00
5350;BME280;2697;42.144;24.794;2023-02-10T01:40:15;150976.88;;;-6.23;100.00
5350;BME280;2697;42.144;24.794;2023-02-10T01:42:40;150961.28;;;-6.29;100.00
5350;BME280;2697;42.144;24.794;2023-02-10T01:45:18;150996.31;;;-6.15;100.00
5350;BME280;2697;42.144;24.794;2023-02-10T01:47:46;150967.78;;;-6.26;100.00
5350;BME280;2697;42.144;24.794;2023-02-10T01:50:13;150975.59;;;-6.23;100.00
5350;BME280;2697;42.144;24.794;2023-02-10T01:52:40;150943.13;;;-6.36;100.00
5350;BME280;2697;42.144;24.794;2023-02-10T01:55:09;150937.94;;;-6.38;100.00
5350;BME280;2697;42.144;24.794;2023-02-10T01:57:37;150932.78;;;-6.40;100.00
5350;BME280;2697;42.144;24.794;2023-02-10T02:00:05;150950.91;;;-6.33;100.00
5350;BME280;2697;42.144;24.794;2023-02-10T02:02:31;150954.81;;;-6.32;100.00
5350;BME280;2697;42.144;24.794;2023-02-10T02:05:01;150937.94;;;-6.38;100.00
5350;BME280;2697;42.144;24.794;2023-02-10T02:07:33;150892.53;;;-6.56;100.00
5350;BME280;2697;42.144;24.794;2023-02-10T02:10:02;150860.13;;;-6.69;100.00
5350;BME280;2697;42.144;24.794;2023-02-10T02:15:31;150810.84;;;-6.88;100.00
5350;BME280;2697;42.144;24.794;2023-02-10T02:26:40;150747.31;;;-7.13;100.00
5350;BME280;2697;42.144;24.794;2023-02-10T02:37:40;150784.88;;;-6.98;100.00
5350;BME280;2697;42.144;24.794;2023-02-10T02:40:08;150831.56;;;-6.80;100.00
5350;BME280;2697;42.144;24.794;2023-02-10T02:42:34;150875.66;;;-6.63;100.00
5350;BME280;2697;42.144;24.794;2023-02-10T02:50:33;150866.59;;;-6.66;100.00
5350;BME280;2697;42.144;24.794;2023-02-10T02:58:53;150844.56;;;-6.75;100.00
5350;BME280;2697;42.144;24.794;2023-02-10T03:01:25;150858.84;;;-6.69;100.00
5350;BME280;2697;42.144;24.794;2023-02-10T03:03:55;150806.94;;;-6.90;100.00
5350;BME280;2697;42.144;24.794;2023-02-10T03:06:22;150727.88;;;-7.21;100.00
5350;BME280;2697;42.144;24.794;2023-02-10T03:08:47;150761.56;;;-7.07;100.00
5350;BME280;2697;42.144;24.794;2023-02-10T03:11:13;150766.78;;;-7.05;100.00
5350;BME280;2697;42.144;24.794;2023-02-10T03:13:38;150690.25;;;-7.35;100.00
5350;BME280;2697;42.144;24.794;2023-02-10T03:16:04;150712.28;;;-7.27;100.00
5350;BME280;2697;42.144;24.794;2023-02-10T03:18:29;150725.28;;;-7.22;100.00
5350;BME280;2697;42.144;24.794;2023-02-10T03:20:55;150791.41;;;-6.96;100.00
5350;BME280;2697;42.144;24.794;2023-02-10T03:23:20;150900.31;;;-6.53;100.00
5350;BME280;2697;42.144;24.794;2023-02-10T03:25:47;150941.81;;;-6.37;100.00
5350;BME280;2697;42.144;24.794;2023-02-10T03:28:12;150937.94;;;-6.38;100.00
5350;BME280;2697;42.144;24.794;2023-02-10T03:30:38;150948.31;;;-6.34;100.00
5350;BME280;2697;42.144;24.794;2023-02-10T03:33:05;150971.66;;;-6.25;100.00
5350;BME280;2697;42.144;24.794;2023-02-10T03:35:35;150967.78;;;-6.26;100.00
5350;BME280;2697;42.144;24.794;2023-02-10T03:38:00;150936.66;;;-6.39;100.00
5350;BME280;2697;42.144;24.794;2023-02-10T03:40:26;150937.94;;;-6.38;100.00
5350;BME280;2697;42.144;24.794;2023-02-10T03:42:51;151004.13;;;-6.12;100.00
5350;BME280;2697;42.144;24.794;2023-02-10T03:45:16;150997.59;;;-6.15;100.00
5350;BME280;2697;42.144;24.794;2023-02-10T03:47:42;151000.25;;;-6.14;100.00
5350;BME280;2697;42.144;24.794;2023-02-10T03:50:07;151002.84;;;-6.13;100.00
5350;BME280;2697;42.144;24.794;2023-02-10T03:52:33;150941.81;;;-6.37;100.00
5350;BME280;2697;42.144;24.794;2023-02-10T03:54:58;150862.72;;;-6.68;100.00
5350;BME280;2697;42.144;24.794;2023-02-10T03:57:23;150795.28;;;-6.94;100.00
5350;BME280;2697;42.144;24.794;2023-02-10T03:59:49;150812.16;;;-6.87;100.00
5350;BME280;2697;42.144;24.794;2023-02-10T04:02:14;150810.84;;;-6.88;100.00
5350;BME280;2697;42.144;24.794;2023-02-10T04:04:39;150796.56;;;-6.94;100.00
5350;BME280;2697;42.144;24.794;2023-02-10T04:07:05;150853.63;;;-6.71;100.00
5350;BME280;2697;42.144;24.794;2023-02-10T04:09:30;150761.56;;;-7.07;100.00
5350;BME280;2697;42.144;24.794;2023-02-10T04:11:55;150771.94;;;-7.03;100.00
5350;BME280;2697;42.144;24.794;2023-02-10T04:14:21;150723.97;;;-7.22;100.00
5350;BME280;2697;42.144;24.794;2023-02-10T04:16:46;150698.06;;;-7.32;100.00
5350;BME280;2697;42.144;24.794;2023-02-10T04:19:12;150672.16;;;-7.42;100.00
5350;BME280;2697;42.144;24.794;2023-02-10T04:21:38;150639.72;;;-7.55;100.00
5350;BME280;2697;42.144;24.794;2023-02-10T04:24:05;150635.84;;;-7.57;100.00
5350;BME280;2697;42.144;24.794;2023-02-10T04:26:31;150665.63;;;-7.45;100.00
5350;BME280;2697;42.144;24.794;2023-02-10T04:28:56;150663.03;;;-7.46;100.00
5350;BME280;2697;42.144;24.794;2023-02-10T04:31:21;150657.88;;;-7.48;100.00
5350;BME280;2697;42.144;24.794;2023-02-10T04:33:47;150673.44;;;-7.42;100.00
5350;BME280;2697;42.144;24.794;2023-02-10T04:36:12;150661.75;;;-7.47;100.00
5350;BME280;2697;42.144;24.794;2023-02-10T04:38:37;150613.81;;;-7.65;100.00
5350;BME280;2697;42.144;24.794;2023-02-10T04:41:03;150635.84;;;-7.57;100.00
5350;BME280;2697;42.144;24.794;2023-02-10T04:43:30;150647.53;;;-7.52;100.00
5350;BME280;2697;42.144;24.794;2023-02-10T04:45:56;150634.53;;;-7.57;100.00
5350;BME280;2697;42.144;24.794;2023-02-10T04:48:21;150611.22;;;-7.66;100.00
5350;BME280;2697;42.144;24.794;2023-02-10T04:50:47;150657.88;;;-7.48;100.00
5350;BME280;2697;42.144;24.794;2023-02-10T04:53:12;150624.19;;;-7.61;100.00
5350;BME280;2697;42.144;24.794;2023-02-10T04:55:38;150606.06;;;-7.68;100.00
5350;BME280;2697;42.144;24.794;2023-02-10T04:58:04;150604.75;;;-7.69;100.00
5350;BME280;2697;42.144;24.794;2023-02-10T05:00:29;150618.97;;;-7.63;100.00
5350;BME280;2697;42.144;24.794;2023-02-10T05:02:54;150637.13;;;-7.56;100.00
5350;BME280;2697;42.144;24.794;2023-02-10T05:05:20;150648.81;;;-7.52;100.00
5350;BME280;2697;42.144;24.794;2023-02-10T05:07:45;150651.41;;;-7.51;100.00
5350;BME280;2697;42.144;24.794;2023-02-10T05:10:11;150644.94;;;-7.53;100.00
5350;BME280;2697;42.144;24.794;2023-02-10T05:12:36;150641.00;;;-7.55;100.00
5350;BME280;2697;42.144;24.794;2023-02-10T05:15:02;150657.88;;;-7.48;100.00
5350;BME280;2697;42.144;24.794;2023-02-10T05:17:27;150644.94;;;-7.53;100.00
5350;BME280;2697;42.144;24.794;2023-02-10T05:19:52;150678.63;;;-7.40;100.00
5350;BME280;2697;42.144;24.794;2023-02-10T05:22:18;150670.84;;;-7.43;100.00
5350;BME280;2697;42.144;24.794;2023-02-10T05:24:43;150726.56;;;-7.21;100.00
5350;BME280;2697;42.144;24.794;2023-02-10T05:27:09;150769.34;;;-7.04;100.00
5350;BME280;2697;42.144;24.794;2023-02-10T05:29:34;150838.09;;;-6.77;100.00
5350;BME280;2697;42.144;24.794;2023-02-10T05:31:59;150878.25;;;-6.62;100.00
5350;BME280;2697;42.144;24.794;2023-02-10T05:34:25;150923.66;;;-6.44;100.00
5350;BME280;2697;42.144;24.794;2023-02-10T05:36:52;150922.38;;;-6.44;100.00
5350;BME280;2697;42.144;24.794;2023-02-10T05:39:17;150896.44;;;-6.54;100.00
5350;BME280;2697;42.144;24.794;2023-02-10T05:41:50;150956.13;;;-6.31;100.00
5350;BME280;2697;42.144;24.794;2023-02-10T05:44:16;150966.47;;;-6.27;100.00
5350;BME280;2697;42.144;24.794;2023-02-10T05:46:41;151011.91;;;-6.09;100.00
5350;BME280;2697;42.144;24.794;2023-02-10T05:49:06;151008.00;;;-6.11;100.00
5350;BME280;2697;42.144;24.794;2023-02-10T05:51:32;151036.56;;;-5.99;100.00
5350;BME280;2697;42.144;24.794;2023-02-10T05:53:57;151105.28;;;-5.72;100.00
5350;BME280;2697;42.144;24.794;2023-02-10T05:56:23;151126.06;;;-5.64;100.00
5350;BME280;2697;42.144;24.794;2023-02-10T05:58:48;151145.56;;;-5.57;100.00
5350;BME280;2697;42.144;24.794;2023-02-10T06:01:13;151159.81;;;-5.51;100.00
5350;BME280;2697;42.144;24.794;2023-02-10T06:03:39;151140.31;;;-5.59;100.00
5350;BME280;2697;42.144;24.794;2023-02-10T06:06:04;151158.50;;;-5.52;100.00
5350;BME280;2697;42.144;24.794;2023-02-10T06:08:30;151172.81;;;-5.46;100.00
5350;BME280;2697;42.144;24.794;2023-02-10T06:10:55;151180.59;;;-5.43;100.00
5350;BME280;2697;42.144;24.794;2023-02-10T06:13:21;151139.03;;;-5.59;100.00
5350;BME280;2697;42.144;24.794;2023-02-10T06:15:46;151187.06;;;-5.40;100.00
5350;BME280;2697;42.144;24.794;2023-02-10T06:18:11;151144.25;;;-5.57;100.00
5350;BME280;2697;42.144;24.794;2023-02-10T06:20:37;151205.25;;;-5.33;100.00
5350;BME280;2697;42.144;24.794;2023-02-10T06:23:02;151202.66;;;-5.34;100.00
5350;BME280;2697;42.144;24.794;2023-02-10T06:25:28;151181.88;;;-5.42;100.00
5350;BME280;2697;42.144;24.794;2023-02-10T06:27:53;151228.63;;;-5.24;100.00
5350;BME280;2697;42.144;24.794;2023-02-10T06:30:19;151309.19;;;-4.93;100.00
5350;BME280;2697;42.144;24.794;2023-02-10T06:32:45;151326.06;;;-4.86;100.00
5350;BME280;2697;42.144;24.794;2023-02-10T06:35:10;151301.38;;;-4.96;100.00
5350;BME280;2697;42.144;24.794;2023-02-10T06:37:36;151324.75;;;-4.87;100.00
5350;BME280;2697;42.144;24.794;2023-02-10T06:40:05;151311.78;;;-4.92;100.00
5350;BME280;2697;42.144;24.794;2023-02-10T06:42:31;151326.06;;;-4.86;100.00
5350;BME280;2697;42.144;24.794;2023-02-10T06:44:56;151335.16;;;-4.82;100.00
5350;BME280;2697;42.144;24.794;2023-02-10T06:47:22;151346.84;;;-4.78;100.00
5350;BME280;2697;42.144;24.794;2023-02-10T06:49:47;151376.72;;;-4.66;100.00
5350;BME280;2697;42.144;24.794;2023-02-10T06:52:13;151376.72;;;-4.66;100.00
5350;BME280;2697;42.144;24.794;2023-02-10T06:54:38;151436.53;;;-4.43;100.00
5350;BME280;2697;42.144;24.794;2023-02-10T06:57:04;151406.63;;;-4.54;100.00
5350;BME280;2697;42.144;24.794;2023-02-10T06:59:31;151467.69;;;-4.31;100.00
5350;BME280;2697;42.144;24.794;2023-02-10T07:02:00;151462.50;;;-4.33;100.00
5350;BME280;2697;42.144;24.794;2023-02-10T07:04:30;151501.53;;;-4.17;100.00
5350;BME280;2697;42.144;24.794;2023-02-10T07:06:57;151573.03;;;-3.89;100.00
5350;BME280;2697;42.144;24.794;2023-02-10T07:09:23;151569.13;;;-3.91;100.00
5350;BME280;2697;42.144;24.794;2023-02-10T07:11:49;151604.22;;;-3.77;100.00
5350;BME280;2697;42.144;24.794;2023-02-10T07:14:14;151587.31;;;-3.84;100.00
5350;BME280;2697;42.144;24.794;2023-02-10T07:16:40;151623.75;;;-3.69;100.00
5350;BME280;2697;42.144;24.794;2023-02-10T07:19:06;151647.16;;;-3.60;100.00
5350;BME280;2697;42.144;24.794;2023-02-10T07:21:31;151686.16;;;-3.45;100.00
5350;BME280;2697;42.144;24.794;2023-02-10T07:23:57;151677.06;;;-3.49;100.00
5350;BME280;2697;42.144;24.794;2023-02-10T07:26:23;151720.00;;;-3.32;100.00
5350;BME280;2697;42.144;24.794;2023-02-10T07:28:48;151716.09;;;-3.33;100.00
5350;BME280;2697;42.144;24.794;2023-02-10T07:31:13;151731.69;;;-3.27;100.00
5350;BME280;2697;42.144;24.794;2023-02-10T07:33:39;151775.94;;;-3.10;100.00
5350;BME280;2697;42.144;24.794;2023-02-10T07:36:05;151783.78;;;-3.07;100.00
5350;BME280;2697;42.144;24.794;2023-02-10T07:38:31;151839.72;;;-2.85;100.00
5350;BME280;2697;42.144;24.794;2023-02-10T07:40:57;151884.00;;;-2.68;100.00
5350;BME280;2697;42.144;24.794;2023-02-10T07:43:23;151903.53;;;-2.60;100.00
5350;BME280;2697;42.144;24.794;2023-02-10T07:45:48;151946.44;;;-2.43;100.00
5350;BME280;2697;42.144;24.794;2023-02-10T07:48:18;151967.28;;;-2.35;100.00
5350;BME280;2697;42.144;24.794;2023-02-10T07:50:46;152024.63;;;-2.13;98.42
5350;BME280;2697;42.144;24.794;2023-02-10T07:53:11;151997.22;;;-2.23;95.10
5350;BME280;2697;42.144;24.794;2023-02-10T07:55:37;152038.91;;;-2.07;94.94
5350;BME280;2697;42.144;24.794;2023-02-10T07:58:04;152050.66;;;-2.03;93.77
5350;BME280;2697;42.144;24.794;2023-02-10T08:00:29;152028.53;;;-2.11;92.55
5350;BME280;2697;42.144;24.794;2023-02-10T08:02:55;152027.22;;;-2.12;89.47
5350;BME280;2697;42.144;24.794;2023-02-10T08:05:20;152063.66;;;-1.97;88.69
5350;BME280;2697;42.144;24.794;2023-02-10T08:07:46;152066.28;;;-1.96;87.21
5350;BME280;2697;42.144;24.794;2023-02-10T08:10:12;152062.38;;;-1.98;84.81
5350;BME280;2697;42.144;24.794;2023-02-10T08:12:37;152028.53;;;-2.11;84.59
5350;BME280;2697;42.144;24.794;2023-02-10T08:15:03;152055.88;;;-2.01;84.80
5350;BME280;2697;42.144;24.794;2023-02-10T08:17:29;152054.56;;;-2.01;84.89
5350;BME280;2697;42.144;24.794;2023-02-10T08:19:54;152137.94;;;-1.68;85.19
5350;BME280;2697;42.144;24.794;2023-02-10T08:22:19;152126.22;;;-1.73;81.32
5350;BME280;2697;42.144;24.794;2023-02-10T08:24:45;152126.22;;;-1.73;80.70
5350;BME280;2697;42.144;24.794;2023-02-10T08:27:10;152163.97;;;-1.58;80.61
5350;BME280;2697;42.144;24.794;2023-02-10T08:29:36;152115.78;;;-1.77;80.35
5350;BME280;2697;42.144;24.794;2023-02-10T08:32:01;152141.88;;;-1.67;79.81
5350;BME280;2697;42.144;24.794;2023-02-10T08:34:26;152194.00;;;-1.47;79.26
5350;BME280;2697;42.144;24.794;2023-02-10T08:36:52;152194.00;;;-1.47;78.17
5350;BME280;2697;42.144;24.794;2023-02-10T08:39:18;152216.16;;;-1.38;79.26
5350;BME280;2697;42.144;24.794;2023-02-10T08:41:43;152225.25;;;-1.34;77.04
5350;BME280;2697;42.144;24.794;2023-02-10T08:44:11;152247.41;;;-1.26;78.40
5350;BME280;2697;42.144;24.794;2023-02-10T08:46:37;152268.28;;;-1.18;79.64
5350;BME280;2697;42.144;24.794;2023-02-10T08:49:03;152272.19;;;-1.16;78.80
5350;BME280;2697;42.144;24.794;2023-02-10T08:51:28;152274.78;;;-1.15;76.90
5350;BME280;2697;42.144;24.794;2023-02-10T08:53:55;152298.25;;;-1.06;76.77
5350;BME280;2697;42.144;24.794;2023-02-10T08:56:21;152268.28;;;-1.18;75.51
5350;BME280;2697;42.144;24.794;2023-02-10T08:58:47;152334.78;;;-0.92;74.47
5350;BME280;2697;42.144;24.794;2023-02-10T09:01:15;152384.31;;;-0.72;73.87
5350;BME280;2697;42.144;24.794;2023-02-10T09:03:41;152377.78;;;-0.75;73.85
5350;BME280;2697;42.144;24.794;2023-02-10T09:06:15;152431.28;;;-0.54;75.51
5350;BME280;2697;42.144;24.794;2023-02-10T09:08:42;152436.50;;;-0.52;75.24
5350;BME280;2697;42.144;24.794;2023-02-10T09:11:08;152410.41;;;-0.62;74.91
5350;BME280;2697;42.144;24.794;2023-02-10T09:13:33;152454.75;;;-0.45;73.86
5350;BME280;2697;42.144;24.794;2023-02-10T09:15:59;152488.66;;;-0.32;72.95
5350;BME280;2697;42.144;24.794;2023-02-10T09:18:24;152492.56;;;-0.30;71.57
5350;BME280;2697;42.144;24.794;2023-02-10T09:20:49;152487.34;;;-0.32;73.38
5350;BME280;2697;42.144;24.794;2023-02-10T09:23:15;152506.94;;;-0.24;70.81
5350;BME280;2697;42.144;24.794;2023-02-10T09:25:40;152577.41;;;0.03;72.27
5350;BME280;2697;42.144;24.794;2023-02-10T09:28:06;152611.31;;;0.16;69.46
5350;BME280;2697;42.144;24.794;2023-02-10T09:30:32;152615.22;;;0.18;69.64
5350;BME280;2697;42.144;24.794;2023-02-10T09:32:57;152674.00;;;0.41;68.40
5350;BME280;2697;42.144;24.794;2023-02-10T09:35:22;152632.22;;;0.24;66.29
5350;BME280;2697;42.144;24.794;2023-02-10T09:37:48;152684.41;;;0.45;66.07
5350;BME280;2697;42.144;24.794;2023-02-10T09:40:22;152657.00;;;0.34;64.63
5350;BME280;2697;42.144;24.794;2023-02-10T09:45:55;152754.91;;;0.72;65.17
5350;BME280;2697;42.144;24.794;2023-02-10T09:48:31;152825.44;;;1.00;64.13
5350;BME280;2697;42.144;24.794;2023-02-10T09:53:46;152894.69;;;1.27;63.51
5350;BME280;2697;42.144;24.794;2023-02-10T09:56:19;152944.31;;;1.46;61.50
5350;BME280;2697;42.144;24.794;2023-02-10T09:58:49;152958.72;;;1.52;61.55
5350;BME280;2697;42.144;24.794;2023-02-10T10:04:14;152973.06;;;1.57;61.19
5350;BME280;2697;42.144;24.794;2023-02-10T10:06:43;153000.56;;;1.68;61.90
5350;BME280;2697;42.144;24.794;2023-02-10T10:11:43;152909.06;;;1.32;59.07
5350;BME280;2697;42.144;24.794;2023-02-10T10:14:38;152835.94;;;1.04;59.17
5350;BME280;2697;42.144;24.794;2023-02-10T10:31:13;153152.19;;;2.27;57.47
5350;BME280;2697;42.144;24.794;2023-02-10T10:39:15;153149.56;;;2.26;55.40
5350;BME280;2697;42.144;24.794;2023-02-10T10:41:44;153173.13;;;2.35;55.21
5350;BME280;2697;42.144;24.794;2023-02-10T10:44:12;153183.56;;;2.39;54.65
5350;BME280;2697;42.144;24.794;2023-02-10T10:46:47;153197.97;;;2.45;54.04
5350;BME280;2697;42.144;24.794;2023-02-10T10:49:13;153212.31;;;2.50;53.14
5350;BME280;2697;42.144;24.794;2023-02-10T10:51:39;153205.78;;;2.48;53.00
5350;BME280;2697;42.144;24.794;2023-02-10T10:54:10;153238.53;;;2.61;52.66
5350;BME280;2697;42.144;24.794;2023-02-10T10:59:21;153248.97;;;2.65;51.58
5350;BME280;2697;42.144;24.794;2023-02-10T11:01:50;153235.84;;;2.60;52.08
5350;BME280;2697;42.144;24.794;2023-02-10T11:04:22;153224.13;;;2.55;51.25
5350;BME280;2697;42.144;24.794;2023-02-10T11:06:55;153276.44;;;2.75;50.22
5350;BME280;2697;42.144;24.794;2023-02-10T11:09:31;153302.59;;;2.85;49.76
5350;BME280;2697;42.144;24.794;2023-02-10T11:12:44;153314.38;;;2.90;49.60
5350;BME280;2697;42.144;24.794;2023-02-10T11:14:51;153307.81;;;2.88;49.97
5350;BME280;2697;42.144;24.794;2023-02-10T11:17:28;153311.78;;;2.89;49.10
5350;BME280;2697;42.144;24.794;2023-02-10T11:20:38;153343.16;;;3.01;50.88
5350;BME280;2697;42.144;24.794;2023-02-10T11:22:44;153344.47;;;3.02;49.75
5350;BME280;2697;42.144;24.794;2023-02-10T11:27:54;153388.97;;;3.19;47.58
5350;BME280;2697;42.144;24.794;2023-02-10T11:30:35;153403.31;;;3.25;47.59
5350;BME280;2697;42.144;24.794;2023-02-10T11:33:02;153406.00;;;3.26;48.01
5350;BME280;2697;42.144;24.794;2023-02-10T11:35:29;153445.22;;;3.41;48.20
5350;BME280;2697;42.144;24.794;2023-02-10T11:38:04;153426.88;;;3.34;47.42
5350;BME280;2697;42.144;24.794;2023-02-10T11:40:48;153411.22;;;3.28;47.21
5350;BME280;2697;42.144;24.794;2023-02-10T11:43:16;153411.22;;;3.28;47.38
5350;BME280;2697;42.144;24.794;2023-02-10T11:45:55;153447.84;;;3.42;48.47
5350;BME280;2697;42.144;24.794;2023-02-10T11:48:22;153498.88;;;3.62;46.68
5350;BME280;2697;42.144;24.794;2023-02-10T11:50:48;153445.22;;;3.41;47.62
5350;BME280;2697;42.144;24.794;2023-02-10T11:53:27;153500.19;;;3.62;47.88
5350;BME280;2697;42.144;24.794;2023-02-10T11:59:02;153510.69;;;3.66;45.85
5350;BME280;2697;42.144;24.794;2023-02-10T12:01:58;153510.69;;;3.66;46.45
5350;BME280;2697;42.144;24.794;2023-02-10T12:16:00;153487.13;;;3.57;46.12
5350;BME280;2697;42.144;24.794;2023-02-10T12:23:57;153610.19;;;4.05;45.65
5350;BME280;2697;42.144;24.794;2023-02-10T12:26:31;153612.81;;;4.06;45.02
5350;BME280;2697;42.144;24.794;2023-02-10T12:29:50;153597.09;;;4.00;44.42
5350;BME280;2697;42.144;24.794;2023-02-10T12:35:38;153555.22;;;3.84;45.58
5350;BME280;2697;42.144;24.794;2023-02-10T12:45:58;153530.34;;;3.74;44.62
5350;BME280;2697;42.144;24.794;2023-02-10T12:49:01;153508.06;;;3.65;44.92
5350;BME280;2697;42.144;24.794;2023-02-10T12:56:40;153612.81;;;4.06;44.20
5350;BME280;2697;42.144;24.794;2023-02-10T12:59:18;153580.09;;;3.93;44.30
5350;BME280;2697;42.144;24.794;2023-02-10T13:01:59;153629.84;;;4.13;43.81
5350;BME280;2697;42.144;24.794;2023-02-10T13:09:43;153607.59;;;4.04;43.37
5350;BME280;2697;42.144;24.794;2023-02-10T13:12:21;153688.78;;;4.36;41.81
5350;BME280;2697;42.144;24.794;2023-02-10T13:14:51;153701.91;;;4.41;41.42
5350;BME280;2697;42.144;24.794;2023-02-10T13:17:17;153671.78;;;4.29;42.21
5350;BME280;2697;42.144;24.794;2023-02-10T13:20:08;153718.94;;;4.47;41.01
5350;BME280;2697;42.144;24.794;2023-02-10T13:25:34;153607.59;;;4.04;41.80
5350;BME280;2697;42.144;24.794;2023-02-10T13:29:11;153574.88;;;3.91;41.85
5350;BME280;2697;42.144;24.794;2023-02-10T13:31:38;153612.81;;;4.06;41.41
5350;BME280;2697;42.144;24.794;2023-02-10T13:34:30;153598.44;;;4.00;40.72
5350;BME280;2697;42.144;24.794;2023-02-10T13:37:18;153631.16;;;4.13;41.02
5350;BME280;2697;42.144;24.794;2023-02-10T13:39:54;153619.34;;;4.09;40.46
5350;BME280;2697;42.144;24.794;2023-02-10T13:42:29;153620.66;;;4.09;40.64
5350;BME280;2697;42.144;24.794;2023-02-10T13:45:04;153628.53;;;4.12;40.57
5350;BME280;2697;42.144;24.794;2023-02-10T13:57:58;153615.44;;;4.07;40.53
5350;BME280;2697;42.144;24.794;2023-02-10T14:00:26;153650.81;;;4.21;40.92
5350;BME280;2697;42.144;24.794;2023-02-10T14:03:22;153646.91;;;4.19;41.54
5350;BME280;2697;42.144;24.794;2023-02-10T14:06:06;153628.53;;;4.12;41.85
5350;BME280;2697;42.144;24.794;2023-02-10T14:13:57;153670.47;;;4.28;41.30
5350;BME280;2697;42.144;24.794;2023-02-10T14:16:40;153699.28;;;4.40;41.12
5350;BME280;2697;42.144;24.794;2023-02-10T14:19:28;153573.56;;;3.91;40.88
5350;BME280;2697;42.144;24.794;2023-02-10T14:21:56;153585.31;;;3.95;41.40
5350;BME280;2697;42.144;24.794;2023-02-10T14:24:31;153559.13;;;3.85;41.11
5350;BME280;2697;42.144;24.794;2023-02-10T14:27:02;153540.78;;;3.78;41.25
5350;BME280;2697;42.144;24.794;2023-02-10T14:29:32;153543.41;;;3.79;40.67
5350;BME280;2697;42.144;24.794;2023-02-10T14:32:01;153587.94;;;3.96;40.20
5350;BME280;2697;42.144;24.794;2023-02-10T14:34:31;153593.16;;;3.98;40.59
5350;BME280;2697;42.144;24.794;2023-02-10T14:37:11;153563.06;;;3.87;41.10
5350;BME280;2697;42.144;24.794;2023-02-10T14:39:39;153531.66;;;3.75;40.89
5350;BME280;2697;42.144;24.794;2023-02-10T14:42:06;153531.66;;;3.75;42.08
5350;BME280;2697;42.144;24.794;2023-02-10T14:44:39;153485.81;;;3.57;41.86
5350;BME280;2697;42.144;24.794;2023-02-10T14:47:06;153471.41;;;3.51;43.31
5350;BME280;2697;42.144;24.794;2023-02-10T14:49:39;153413.81;;;3.29;43.43
5350;BME280;2697;42.144;24.794;2023-02-10T14:52:05;153399.41;;;3.23;43.35
5350;BME280;2697;42.144;24.794;2023-02-10T14:54:37;153381.06;;;3.16;42.28
5350;BME280;2697;42.144;24.794;2023-02-10T14:57:11;153357.53;;;3.07;42.59
5350;BME280;2697;42.144;24.794;2023-02-10T14:59:37;153314.38;;;2.90;43.45
5350;BME280;2697;42.144;24.794;2023-02-10T15:02:17;153282.94;;;2.78;43.34
5350;BME280;2697;42.144;24.794;2023-02-10T15:04:44;153260.72;;;2.69;44.26
5350;BME280;2697;42.144;24.794;2023-02-10T15:07:35;153324.84;;;2.94;44.04
5350;BME280;2697;42.144;24.794;2023-02-10T15:10:33;153339.25;;;3.00;43.14
5350;BME280;2697;42.144;24.794;2023-02-10T15:13:01;153319.59;;;2.92;42.44